sensor_id;sensor_type;location;lat;lon;timestamp;P1;durP1;ratioP1;P2;durP2;ratioP2
16979;SDS011;42288;52.182;21.156;2023-07-13T00:00:24;15.20;;;12.37;;
16979;SDS011;42288;52.182;21.156;2023-07-13T00:02:51;16.40;;;11.67;;
16979;SDS011;42288;52.182;21.156;2023-07-13T00:05:19;17.47;;;11.93;;
16979;SDS011;42288;52.182;21.156;2023-07-13T00:07:45;15.50;;;12.27;;
16979;SDS011;42288;52.182;21.156;2023-07-13T00:10:11;15.37;;;11.37;;
16979;SDS011;42288;52.182;21.156;2023-07-13T00:12:37;14.87;;;11.10;;
16979;SDS011;42288;52.182;21.156;2023-07-13T00:15:06;15.97;;;11.03;;
16979;SDS011;42288;52.182;21.156;2023-07-13T00:17:36;14.53;;;10.60;;
16979;SDS011;42288;52.182;21.156;2023-07-13T00:20:03;17.23;;;12.23;;
16979;SDS011;42288;52.182;21.156;2023-07-13T00:22:29;16.90;;;12.30;;
16979;SDS011;42288;52.182;21.156;2023-07-13T00:24:55;17.37;;;11.37;;
16979;SDS011;42288;52.182;21.156;2023-07-13T00:27:21;16.43;;;10.77;;
16979;SDS011;42288;52.182;21.156;2023-07-13T00:29:47;15.43;;;11.20;;
16979;SDS011;42288;52.182;21.156;2023-07-13T00:32:13;14.67;;;9.80;;
16979;SDS011;42288;52.182;21.156;2023-07-13T00:34:38;15.33;;;10.40;;
16979;SDS011;42288;52.182;21.156;2023-07-13T00:37:04;13.87;;;10.53;;
16979;SDS011;42288;52.182;21.156;2023-07-13T00:39:34;12.37;;;10.10;;
16979;SDS011;42288;52.182;21.156;2023-07-13T00:42:00;15.60;;;9.77;;
16979;SDS011;42288;52.182;21.156;2023-07-13T00:44:26;14.50;;;10.10;;
16979;SDS011;42288;52.182;21.156;2023-07-13T00:46:52;13.43;;;9.93;;
16979;SDS011;42288;52.182;21.156;2023-07-13T00:49:20;13.27;;;9.63;;
16979;SDS011;42288;52.182;21.156;2023-07-13T00:51:52;17.90;;;10.90;;
16979;SDS011;42288;52.182;21.156;2023-07-13T00:54:22;14.13;;;10.83;;
16979;SDS011;42288;52.182;21.156;2023-07-13T00:56:52;15.93;;;11.50;;
16979;SDS011;42288;52.182;21.156;2023-07-13T00:59:20;14.83;;;10.97;;
16979;SDS011;42288;52.182;21.156;2023-07-13T01:01:47;15.43;;;11.20;;
16979;SDS011;42288;52.182;21.156;2023-07-13T01:04:13;13.30;;;10.77;;
16979;SDS011;42288;52.182;21.156;2023-07-13T01:06:39;15.00;;;11.57;;
16979;SDS011;42288;52.182;21.156;2023-07-13T01:09:06;15.87;;;11.83;;
16979;SDS011;42288;52.182;21.156;2023-07-13T01:11:33;14.93;;;10.73;;
16979;SDS011;42288;52.182;21.156;2023-07-13T01:13:59;15.30;;;10.63;;
16979;SDS011;42288;52.182;21.156;2023-07-13T01:16:27;12.00;;;10.27;;
16979;SDS011;42288;52.182;21.156;2023-07-13T01:18:55;12.43;;;9.63;;
16979;SDS011;42288;52.182;21.156;2023-07-13T01:21:24;13.83;;;9.70;;
16979;SDS011;42288;52.182;21.156;2023-07-13T01:23:51;11.83;;;9.40;;
16979;SDS011;42288;52.182;21.156;2023-07-13T01:26:17;11.93;;;9.97;;
16979;SDS011;42288;52.182;21.156;2023-07-13T01:28:43;12.00;;;9.63;;
16979;SDS011;42288;52.182;21.156;2023-07-13T01:31:09;13.00;;;9.30;;
16979;SDS011;42288;52.182;21.156;2023-07-13T01:33:36;12.63;;;9.43;;
16979;SDS011;42288;52.182;21.156;2023-07-13T01:36:04;12.23;;;9.60;;
16979;SDS011;42288;52.182;21.156;2023-07-13T01:38:31;12.87;;;9.80;;
16979;SDS011;42288;52.182;21.156;2023-07-13T01:40:57;12.77;;;9.57;;
16979;SDS011;42288;52.182;21.156;2023-07-13T01:43:23;12.80;;;9.90;;
16979;SDS011;42288;52.182;21.156;2023-07-13T01:45:49;12.70;;;9.70;;
16979;SDS011;42288;52.182;21.156;2023-07-13T01:48:14;14.57;;;9.70;;
16979;SDS011;42288;52.182;21.156;2023-07-13T01:50:40;15.37;;;10.43;;
16979;SDS011;42288;52.182;21.156;2023-07-13T01:53:06;12.17;;;10.07;;
16979;SDS011;42288;52.182;21.156;2023-07-13T01:55:31;16.40;;;10.50;;
16979;SDS011;42288;52.182;21.156;2023-07-13T01:57:57;15.60;;;9.67;;
16979;SDS011;42288;52.182;21.156;2023-07-13T02:00:23;11.17;;;9.30;;
16979;SDS011;42288;52.182;21.156;2023-07-13T02:02:49;13.07;;;9.13;;
16979;SDS011;42288;52.182;21.156;2023-07-13T02:05:15;14.37;;;9.10;;
16979;SDS011;42288;52.182;21.156;2023-07-13T02:07:41;11.57;;;9.57;;
16979;SDS011;42288;52.182;21.156;2023-07-13T02:10:07;11.23;;;9.20;;
16979;SDS011;42288;52.182;21.156;2023-07-13T02:12:34;14.87;;;9.17;;
16979;SDS011;42288;52.182;21.156;2023-07-13T02:15:00;10.90;;;8.77;;
16979;SDS011;42288;52.182;21.156;2023-07-13T02:17:26;12.63;;;9.87;;
16979;SDS011;42288;52.182;21.156;2023-07-13T02:19:52;14.73;;;10.10;;
16979;SDS011;42288;52.182;21.156;2023-07-13T02:22:17;11.57;;;9.80;;
16979;SDS011;42288;52.182;21.156;2023-07-13T02:24:43;10.67;;;8.80;;
16979;SDS011;42288;52.182;21.156;2023-07-13T02:27:09;12.23;;;8.80;;
16979;SDS011;42288;52.182;21.156;2023-07-13T02:29:34;11.50;;;8.37;;
16979;SDS011;42288;52.182;21.156;2023-07-13T02:32:00;12.43;;;8.97;;
16979;SDS011;42288;52.182;21.156;2023-07-13T02:34:25;10.30;;;8.50;;
16979;SDS011;42288;52.182;21.156;2023-07-13T02:36:51;10.40;;;8.80;;
16979;SDS011;42288;52.182;21.156;2023-07-13T02:39:17;10.73;;;9.60;;
16979;SDS011;42288;52.182;21.156;2023-07-13T02:41:43;11.60;;;8.57;;
16979;SDS011;42288;52.182;21.156;2023-07-13T02:44:09;10.00;;;8.40;;
16979;SDS011;42288;52.182;21.156;2023-07-13T02:46:35;9.87;;;8.03;;
16979;SDS011;42288;52.182;21.156;2023-07-13T02:49:01;14.53;;;8.30;;
16979;SDS011;42288;52.182;21.156;2023-07-13T02:51:27;15.87;;;8.83;;
16979;SDS011;42288;52.182;21.156;2023-07-13T02:53:53;10.77;;;7.90;;
16979;SDS011;42288;52.182;21.156;2023-07-13T02:56:21;12.17;;;8.27;;
16979;SDS011;42288;52.182;21.156;2023-07-13T02:58:48;12.63;;;8.43;;
16979;SDS011;42288;52.182;21.156;2023-07-13T03:01:14;12.67;;;8.17;;
16979;SDS011;42288;52.182;21.156;2023-07-13T03:03:43;10.63;;;8.13;;
16979;SDS011;42288;52.182;21.156;2023-07-13T03:06:08;11.67;;;8.70;;
16979;SDS011;42288;52.182;21.156;2023-07-13T03:08:34;10.30;;;8.47;;
16979;SDS011;42288;52.182;21.156;2023-07-13T03:11:04;11.00;;;8.40;;
16979;SDS011;42288;52.182;21.156;2023-07-13T03:13:32;8.43;;;6.80;;
16979;SDS011;42288;52.182;21.156;2023-07-13T03:15:57;12.23;;;8.37;;
16979;SDS011;42288;52.182;21.156;2023-07-13T03:18:23;10.57;;;7.87;;
16979;SDS011;42288;52.182;21.156;2023-07-13T03:20:50;12.03;;;8.80;;
16979;SDS011;42288;52.182;21.156;2023-07-13T03:23:16;12.63;;;9.10;;
16979;SDS011;42288;52.182;21.156;2023-07-13T03:25:42;12.23;;;9.70;;
16979;SDS011;42288;52.182;21.156;2023-07-13T03:28:09;13.83;;;9.40;;
16979;SDS011;42288;52.182;21.156;2023-07-13T03:30:34;11.77;;;8.70;;
16979;SDS011;42288;52.182;21.156;2023-07-13T03:33:00;11.23;;;8.60;;
16979;SDS011;42288;52.182;21.156;2023-07-13T03:35:25;13.17;;;8.80;;
16979;SDS011;42288;52.182;21.156;2023-07-13T03:37:51;10.97;;;7.47;;
16979;SDS011;42288;52.182;21.156;2023-07-13T03:40:16;10.47;;;8.60;;
16979;SDS011;42288;52.182;21.156;2023-07-13T03:42:42;13.03;;;8.57;;
16979;SDS011;42288;52.182;21.156;2023-07-13T03:45:08;11.80;;;8.43;;
16979;SDS011;42288;52.182;21.156;2023-07-13T03:47:33;12.53;;;9.37;;
16979;SDS011;42288;52.182;21.156;2023-07-13T03:49:59;13.73;;;8.50;;
16979;SDS011;42288;52.182;21.156;2023-07-13T03:52:25;12.60;;;9.07;;
16979;SDS011;42288;52.182;21.156;2023-07-13T03:54:50;14.20;;;9.07;;
16979;SDS011;42288;52.182;21.156;2023-07-13T03:57:16;13.90;;;10.40;;
16979;SDS011;42288;52.182;21.156;2023-07-13T03:59:41;14.83;;;10.40;;
16979;SDS011;42288;52.182;21.156;2023-07-13T04:02:07;15.83;;;10.83;;
16979;SDS011;42288;52.182;21.156;2023-07-13T04:04:33;15.17;;;9.33;;
16979;SDS011;42288;52.182;21.156;2023-07-13T04:06:58;15.77;;;10.23;;
16979;SDS011;42288;52.182;21.156;2023-07-13T04:09:24;13.27;;;10.13;;
16979;SDS011;42288;52.182;21.156;2023-07-13T04:11:50;14.77;;;10.20;;
16979;SDS011;42288;52.182;21.156;2023-07-13T04:14:16;14.93;;;9.80;;
16979;SDS011;42288;52.182;21.156;2023-07-13T04:16:42;13.97;;;9.93;;
16979;SDS011;42288;52.182;21.156;2023-07-13T04:19:08;13.23;;;9.77;;
16979;SDS011;42288;52.182;21.156;2023-07-13T04:21:35;12.00;;;9.27;;
16979;SDS011;42288;52.182;21.156;2023-07-13T04:24:02;12.07;;;8.53;;
16979;SDS011;42288;52.182;21.156;2023-07-13T04:26:29;11.93;;;8.90;;
16979;SDS011;42288;52.182;21.156;2023-07-13T04:28:54;14.10;;;9.30;;
16979;SDS011;42288;52.182;21.156;2023-07-13T04:31:21;13.23;;;9.67;;
16979;SDS011;42288;52.182;21.156;2023-07-13T04:33:47;12.40;;;9.60;;
16979;SDS011;42288;52.182;21.156;2023-07-13T04:36:13;13.70;;;9.40;;
16979;SDS011;42288;52.182;21.156;2023-07-13T04:38:39;14.07;;;9.77;;
16979;SDS011;42288;52.182;21.156;2023-07-13T04:41:06;15.40;;;10.60;;
16979;SDS011;42288;52.182;21.156;2023-07-13T04:43:33;15.00;;;10.50;;
16979;SDS011;42288;52.182;21.156;2023-07-13T04:46:03;13.73;;;9.93;;
16979;SDS011;42288;52.182;21.156;2023-07-13T04:48:30;17.00;;;10.53;;
16979;SDS011;42288;52.182;21.156;2023-07-13T04:50:56;13.87;;;10.50;;
16979;SDS011;42288;52.182;21.156;2023-07-13T04:53:23;16.17;;;11.17;;
16979;SDS011;42288;52.182;21.156;2023-07-13T04:55:49;18.03;;;11.27;;
16979;SDS011;42288;52.182;21.156;2023-07-13T04:58:14;13.83;;;10.07;;
16979;SDS011;42288;52.182;21.156;2023-07-13T05:00:40;17.87;;;11.60;;
16979;SDS011;42288;52.182;21.156;2023-07-13T05:03:05;15.17;;;11.27;;
16979;SDS011;42288;52.182;21.156;2023-07-13T05:05:31;19.20;;;12.07;;
16979;SDS011;42288;52.182;21.156;2023-07-13T05:07:57;16.47;;;11.30;;
16979;SDS011;42288;52.182;21.156;2023-07-13T05:10:23;16.77;;;11.13;;
16979;SDS011;42288;52.182;21.156;2023-07-13T05:12:48;14.70;;;10.90;;
16979;SDS011;42288;52.182;21.156;2023-07-13T05:15:14;15.90;;;12.40;;
16979;SDS011;42288;52.182;21.156;2023-07-13T05:17:40;14.90;;;11.30;;
16979;SDS011;42288;52.182;21.156;2023-07-13T05:20:07;17.50;;;11.47;;
16979;SDS011;42288;52.182;21.156;2023-07-13T05:22:34;15.37;;;11.30;;
16979;SDS011;42288;52.182;21.156;2023-07-13T05:25:00;17.17;;;11.57;;
16979;SDS011;42288;52.182;21.156;2023-07-13T05:27:26;16.57;;;11.40;;
16979;SDS011;42288;52.182;21.156;2023-07-13T05:29:52;16.67;;;11.53;;
16979;SDS011;42288;52.182;21.156;2023-07-13T05:32:18;17.07;;;12.80;;
16979;SDS011;42288;52.182;21.156;2023-07-13T05:34:44;18.97;;;12.73;;
16979;SDS011;42288;52.182;21.156;2023-07-13T05:37:09;16.40;;;12.17;;
16979;SDS011;42288;52.182;21.156;2023-07-13T05:39:35;17.50;;;11.77;;
16979;SDS011;42288;52.182;21.156;2023-07-13T05:42:01;23.33;;;12.87;;
16979;SDS011;42288;52.182;21.156;2023-07-13T05:44:27;15.83;;;11.47;;
16979;SDS011;42288;52.182;21.156;2023-07-13T05:46:54;16.33;;;12.03;;
16979;SDS011;42288;52.182;21.156;2023-07-13T05:49:21;18.03;;;12.73;;
16979;SDS011;42288;52.182;21.156;2023-07-13T05:51:47;17.87;;;12.47;;
16979;SDS011;42288;52.182;21.156;2023-07-13T05:54:13;15.30;;;12.03;;
16979;SDS011;42288;52.182;21.156;2023-07-13T05:56:38;16.63;;;12.40;;
16979;SDS011;42288;52.182;21.156;2023-07-13T05:59:04;17.27;;;12.83;;
16979;SDS011;42288;52.182;21.156;2023-07-13T06:01:30;16.87;;;12.57;;
16979;SDS011;42288;52.182;21.156;2023-07-13T06:03:56;17.00;;;12.53;;
16979;SDS011;42288;52.182;21.156;2023-07-13T06:06:21;16.90;;;12.63;;
16979;SDS011;42288;52.182;21.156;2023-07-13T06:08:47;15.00;;;11.73;;
16979;SDS011;42288;52.182;21.156;2023-07-13T06:11:14;16.93;;;11.33;;
16979;SDS011;42288;52.182;21.156;2023-07-13T06:13:44;19.73;;;12.77;;
16979;SDS011;42288;52.182;21.156;2023-07-13T06:16:10;16.07;;;12.70;;
16979;SDS011;42288;52.182;21.156;2023-07-13T06:18:36;15.77;;;12.20;;
16979;SDS011;42288;52.182;21.156;2023-07-13T06:21:06;14.27;;;11.53;;
16979;SDS011;42288;52.182;21.156;2023-07-13T06:23:33;15.90;;;12.10;;
16979;SDS011;42288;52.182;21.156;2023-07-13T06:25:59;17.33;;;11.67;;
16979;SDS011;42288;52.182;21.156;2023-07-13T06:28:25;17.63;;;14.33;;
16979;SDS011;42288;52.182;21.156;2023-07-13T06:30:50;11.97;;;9.67;;
16979;SDS011;42288;52.182;21.156;2023-07-13T06:33:16;13.67;;;10.00;;
16979;SDS011;42288;52.182;21.156;2023-07-13T06:35:42;10.73;;;9.13;;
16979;SDS011;42288;52.182;21.156;2023-07-13T06:38:07;15.00;;;10.23;;
16979;SDS011;42288;52.182;21.156;2023-07-13T06:40:33;14.77;;;10.10;;
16979;SDS011;42288;52.182;21.156;2023-07-13T06:42:59;12.40;;;8.63;;
16979;SDS011;42288;52.182;21.156;2023-07-13T06:45:24;14.30;;;8.60;;
16979;SDS011;42288;52.182;21.156;2023-07-13T06:47:50;10.97;;;8.00;;
16979;SDS011;42288;52.182;21.156;2023-07-13T06:50:16;11.70;;;7.70;;
16979;SDS011;42288;52.182;21.156;2023-07-13T06:52:41;8.27;;;7.00;;
16979;SDS011;42288;52.182;21.156;2023-07-13T06:55:07;13.93;;;8.40;;
16979;SDS011;42288;52.182;21.156;2023-07-13T06:57:33;8.63;;;5.83;;
16979;SDS011;42288;52.182;21.156;2023-07-13T06:59:58;7.30;;;5.80;;
16979;SDS011;42288;52.182;21.156;2023-07-13T07:02:24;9.00;;;6.07;;
16979;SDS011;42288;52.182;21.156;2023-07-13T07:04:50;7.57;;;5.90;;
16979;SDS011;42288;52.182;21.156;2023-07-13T07:07:15;7.07;;;5.23;;
16979;SDS011;42288;52.182;21.156;2023-07-13T07:09:41;7.87;;;5.90;;
16979;SDS011;42288;52.182;21.156;2023-07-13T07:12:07;6.40;;;4.40;;
16979;SDS011;42288;52.182;21.156;2023-07-13T07:14:33;7.80;;;4.57;;
16979;SDS011;42288;52.182;21.156;2023-07-13T07:16:59;5.83;;;4.47;;
16979;SDS011;42288;52.182;21.156;2023-07-13T07:19:25;7.88;;;4.50;;
16979;SDS011;42288;52.182;21.156;2023-07-13T07:21:52;7.38;;;4.13;;
16979;SDS011;42288;52.182;21.156;2023-07-13T07:24:18;6.88;;;4.80;;
16979;SDS011;42288;52.182;21.156;2023-07-13T07:26:44;7.30;;;4.40;;
16979;SDS011;42288;52.182;21.156;2023-07-13T07:29:09;5.68;;;3.95;;
16979;SDS011;42288;52.182;21.156;2023-07-13T07:31:35;9.18;;;4.25;;
16979;SDS011;42288;52.182;21.156;2023-07-13T07:34:02;5.57;;;4.40;;
16979;SDS011;42288;52.182;21.156;2023-07-13T07:36:27;7.90;;;5.30;;
16979;SDS011;42288;52.182;21.156;2023-07-13T07:38:53;5.82;;;4.63;;
16979;SDS011;42288;52.182;21.156;2023-07-13T07:41:19;7.80;;;6.03;;
16979;SDS011;42288;52.182;21.156;2023-07-13T07:43:44;9.07;;;5.63;;
16979;SDS011;42288;52.182;21.156;2023-07-13T07:46:10;6.55;;;4.72;;
16979;SDS011;42288;52.182;21.156;2023-07-13T07:48:36;4.97;;;3.87;;
16979;SDS011;42288;52.182;21.156;2023-07-13T07:51:01;4.43;;;2.95;;
16979;SDS011;42288;52.182;21.156;2023-07-13T07:53:27;3.63;;;2.60;;
16979;SDS011;42288;52.182;21.156;2023-07-13T07:55:52;4.80;;;3.38;;
16979;SDS011;42288;52.182;21.156;2023-07-13T07:58:18;4.78;;;3.53;;
16979;SDS011;42288;52.182;21.156;2023-07-13T08:00:44;4.63;;;3.35;;
16979;SDS011;42288;52.182;21.156;2023-07-13T08:03:09;5.85;;;4.55;;
16979;SDS011;42288;52.182;21.156;2023-07-13T08:05:35;8.70;;;4.97;;
16979;SDS011;42288;52.182;21.156;2023-07-13T08:08:01;10.88;;;6.78;;
16979;SDS011;42288;52.182;21.156;2023-07-13T08:10:27;12.68;;;6.65;;
16979;SDS011;42288;52.182;21.156;2023-07-13T08:12:53;9.88;;;6.75;;
16979;SDS011;42288;52.182;21.156;2023-07-13T08:15:18;9.57;;;6.47;;
16979;SDS011;42288;52.182;21.156;2023-07-13T08:17:45;8.68;;;7.40;;
16979;SDS011;42288;52.182;21.156;2023-07-13T08:20:12;10.40;;;7.25;;
16979;SDS011;42288;52.182;21.156;2023-07-13T08:22:38;10.45;;;8.00;;
16979;SDS011;42288;52.182;21.156;2023-07-13T08:25:04;10.80;;;7.50;;
16979;SDS011;42288;52.182;21.156;2023-07-13T08:27:30;10.43;;;7.15;;
16979;SDS011;42288;52.182;21.156;2023-07-13T08:29:55;9.23;;;6.47;;
16979;SDS011;42288;52.182;21.156;2023-07-13T08:32:22;7.75;;;5.93;;
16979;SDS011;42288;52.182;21.156;2023-07-13T08:34:48;6.43;;;5.00;;
16979;SDS011;42288;52.182;21.156;2023-07-13T08:37:14;9.18;;;4.78;;
16979;SDS011;42288;52.182;21.156;2023-07-13T08:39:40;6.13;;;4.55;;
16979;SDS011;42288;52.182;21.156;2023-07-13T08:42:18;5.70;;;4.13;;
16979;SDS011;42288;52.182;21.156;2023-07-13T08:47:46;5.50;;;4.10;;
16979;SDS011;42288;52.182;21.156;2023-07-13T08:50:18;8.27;;;4.38;;
16979;SDS011;42288;52.182;21.156;2023-07-13T08:52:46;9.63;;;5.05;;
16979;SDS011;42288;52.182;21.156;2023-07-13T08:55:16;6.85;;;4.95;;
16979;SDS011;42288;52.182;21.156;2023-07-13T08:57:50;6.70;;;5.20;;
16979;SDS011;42288;52.182;21.156;2023-07-13T09:00:55;8.07;;;5.40;;
16979;SDS011;42288;52.182;21.156;2023-07-13T09:03:29;8.20;;;5.38;;
16979;SDS011;42288;52.182;21.156;2023-07-13T09:06:02;8.20;;;5.72;;
16979;SDS011;42288;52.182;21.156;2023-07-13T09:17:03;8.20;;;5.45;;
16979;SDS011;42288;52.182;21.156;2023-07-13T09:19:31;7.32;;;5.38;;
16979;SDS011;42288;52.182;21.156;2023-07-13T09:22:01;6.90;;;5.57;;
16979;SDS011;42288;52.182;21.156;2023-07-13T09:24:37;6.28;;;4.75;;
16979;SDS011;42288;52.182;21.156;2023-07-13T09:27:15;6.88;;;5.50;;
16979;SDS011;42288;52.182;21.156;2023-07-13T09:29:47;7.05;;;5.43;;
16979;SDS011;42288;52.182;21.156;2023-07-13T09:32:17;8.18;;;5.65;;
16979;SDS011;42288;52.182;21.156;2023-07-13T09:34:53;7.05;;;5.53;;
16979;SDS011;42288;52.182;21.156;2023-07-13T09:37:20;10.25;;;6.03;;
16979;SDS011;42288;52.182;21.156;2023-07-13T09:39:48;11.20;;;6.43;;
16979;SDS011;42288;52.182;21.156;2023-07-13T09:42:19;15.82;;;5.85;;
16979;SDS011;42288;52.182;21.156;2023-07-13T09:47:23;8.60;;;5.28;;
16979;SDS011;42288;52.182;21.156;2023-07-13T09:52:41;6.88;;;5.15;;
16979;SDS011;42288;52.182;21.156;2023-07-13T09:58:42;3.80;;;3.25;;
16979;SDS011;42288;52.182;21.156;2023-07-13T10:00:54;7.45;;;3.28;;
16979;SDS011;42288;52.182;21.156;2023-07-13T10:03:26;4.15;;;2.92;;
16979;SDS011;42288;52.182;21.156;2023-07-13T10:05:53;9.18;;;3.15;;
16979;SDS011;42288;52.182;21.156;2023-07-13T10:08:26;8.48;;;3.08;;
16979;SDS011;42288;52.182;21.156;2023-07-13T10:11:00;7.75;;;3.08;;
16979;SDS011;42288;52.182;21.156;2023-07-13T10:15:53;4.55;;;3.45;;
16979;SDS011;42288;52.182;21.156;2023-07-13T10:18:21;3.95;;;3.00;;
16979;SDS011;42288;52.182;21.156;2023-07-13T10:20:50;4.50;;;2.80;;
16979;SDS011;42288;52.182;21.156;2023-07-13T10:23:23;5.97;;;3.20;;
16979;SDS011;42288;52.182;21.156;2023-07-13T10:25:57;4.43;;;2.67;;
16979;SDS011;42288;52.182;21.156;2023-07-13T10:30:55;5.70;;;2.75;;
16979;SDS011;42288;52.182;21.156;2023-07-13T10:33:23;4.32;;;2.72;;
16979;SDS011;42288;52.182;21.156;2023-07-13T10:35:49;4.13;;;2.55;;
16979;SDS011;42288;52.182;21.156;2023-07-13T10:38:20;5.10;;;2.60;;
16979;SDS011;42288;52.182;21.156;2023-07-13T10:43:36;5.47;;;2.60;;
16979;SDS011;42288;52.182;21.156;2023-07-13T10:46:08;4.10;;;2.33;;
16979;SDS011;42288;52.182;21.156;2023-07-13T10:48:39;4.57;;;2.53;;
16979;SDS011;42288;52.182;21.156;2023-07-13T10:51:07;3.57;;;2.13;;
16979;SDS011;42288;52.182;21.156;2023-07-13T10:53:36;3.43;;;2.40;;
16979;SDS011;42288;52.182;21.156;2023-07-13T10:56:05;4.32;;;2.42;;
16979;SDS011;42288;52.182;21.156;2023-07-13T10:59:34;4.20;;;2.40;;
16979;SDS011;42288;52.182;21.156;2023-07-13T11:04:47;4.97;;;2.90;;
16979;SDS011;42288;52.182;21.156;2023-07-13T11:10:02;5.90;;;2.57;;
16979;SDS011;42288;52.182;21.156;2023-07-13T11:15:30;5.17;;;2.97;;
16979;SDS011;42288;52.182;21.156;2023-07-13T11:18:19;5.30;;;2.93;;
16979;SDS011;42288;52.182;21.156;2023-07-13T11:20:47;6.63;;;3.40;;
16979;SDS011;42288;52.182;21.156;2023-07-13T11:25:42;21.03;;;9.57;;
16979;SDS011;42288;52.182;21.156;2023-07-13T11:33:24;24.70;;;13.67;;
16979;SDS011;42288;52.182;21.156;2023-07-13T11:36:12;38.87;;;19.13;;
16979;SDS011;42288;52.182;21.156;2023-07-13T11:38:43;56.17;;;23.67;;
16979;SDS011;42288;52.182;21.156;2023-07-13T11:41:29;43.77;;;20.67;;
16979;SDS011;42288;52.182;21.156;2023-07-13T11:44:07;38.93;;;19.37;;
16979;SDS011;42288;52.182;21.156;2023-07-13T11:46:36;43.13;;;20.33;;
16979;SDS011;42288;52.182;21.156;2023-07-13T11:49:04;28.97;;;16.90;;
16979;SDS011;42288;52.182;21.156;2023-07-13T11:51:32;52.63;;;23.03;;
16979;SDS011;42288;52.182;21.156;2023-07-13T11:54:04;44.23;;;20.40;;
16979;SDS011;42288;52.182;21.156;2023-07-13T11:56:46;41.67;;;20.10;;
16979;SDS011;42288;52.182;21.156;2023-07-13T11:59:11;26.33;;;13.40;;
16979;SDS011;42288;52.182;21.156;2023-07-13T12:01:51;23.10;;;13.40;;
16979;SDS011;42288;52.182;21.156;2023-07-13T12:04:23;41.90;;;19.50;;
16979;SDS011;42288;52.182;21.156;2023-07-13T12:07:06;26.33;;;13.97;;
16979;SDS011;42288;52.182;21.156;2023-07-13T12:09:39;30.00;;;16.20;;
16979;SDS011;42288;52.182;21.156;2023-07-13T12:12:10;23.23;;;13.73;;
16979;SDS011;42288;52.182;21.156;2023-07-13T12:14:37;22.33;;;13.07;;
16979;SDS011;42288;52.182;21.156;2023-07-13T12:17:07;32.93;;;17.37;;
16979;SDS011;42288;52.182;21.156;2023-07-13T12:19:44;21.90;;;13.70;;
16979;SDS011;42288;52.182;21.156;2023-07-13T12:22:11;21.63;;;12.60;;
16979;SDS011;42288;52.182;21.156;2023-07-13T12:24:39;26.20;;;14.13;;
16979;SDS011;42288;52.182;21.156;2023-07-13T12:27:06;22.17;;;12.93;;
16979;SDS011;42288;52.182;21.156;2023-07-13T12:29:48;20.53;;;12.67;;
16979;SDS011;42288;52.182;21.156;2023-07-13T12:32:25;22.03;;;14.60;;
16979;SDS011;42288;52.182;21.156;2023-07-13T12:34:55;23.83;;;15.23;;
16979;SDS011;42288;52.182;21.156;2023-07-13T12:37:22;20.67;;;14.77;;
16979;SDS011;42288;52.182;21.156;2023-07-13T12:39:48;18.87;;;13.80;;
16979;SDS011;42288;52.182;21.156;2023-07-13T12:42:22;21.83;;;13.17;;
16979;SDS011;42288;52.182;21.156;2023-07-13T12:44:53;19.17;;;12.37;;
16979;SDS011;42288;52.182;21.156;2023-07-13T12:47:41;20.47;;;12.67;;
16979;SDS011;42288;52.182;21.156;2023-07-13T12:50:12;16.07;;;10.27;;
16979;SDS011;42288;52.182;21.156;2023-07-13T12:52:44;20.57;;;12.33;;
16979;SDS011;42288;52.182;21.156;2023-07-13T12:55:19;10.60;;;8.00;;
16979;SDS011;42288;52.182;21.156;2023-07-13T12:57:53;12.73;;;9.93;;
16979;SDS011;42288;52.182;21.156;2023-07-13T13:00:22;14.10;;;9.93;;
16979;SDS011;42288;52.182;21.156;2023-07-13T13:02:50;13.63;;;9.40;;
16979;SDS011;42288;52.182;21.156;2023-07-13T13:05:17;14.60;;;9.93;;
16979;SDS011;42288;52.182;21.156;2023-07-13T13:07:42;16.17;;;12.40;;
16979;SDS011;42288;52.182;21.156;2023-07-13T13:10:12;17.30;;;10.90;;
16979;SDS011;42288;52.182;21.156;2023-07-13T13:12:38;14.40;;;10.60;;
16979;SDS011;42288;52.182;21.156;2023-07-13T13:15:07;13.83;;;9.97;;
16979;SDS011;42288;52.182;21.156;2023-07-13T13:17:34;13.13;;;9.30;;
16979;SDS011;42288;52.182;21.156;2023-07-13T13:20:00;15.50;;;10.00;;
16979;SDS011;42288;52.182;21.156;2023-07-13T13:22:25;12.90;;;8.40;;
16979;SDS011;42288;52.182;21.156;2023-07-13T13:24:51;14.80;;;10.20;;
16979;SDS011;42288;52.182;21.156;2023-07-13T13:27:18;14.63;;;10.50;;
16979;SDS011;42288;52.182;21.156;2023-07-13T13:29:48;14.47;;;10.57;;
16979;SDS011;42288;52.182;21.156;2023-07-13T13:32:16;16.07;;;10.00;;
16979;SDS011;42288;52.182;21.156;2023-07-13T13:34:42;12.90;;;9.17;;
16979;SDS011;42288;52.182;21.156;2023-07-13T13:37:18;12.73;;;9.80;;
16979;SDS011;42288;52.182;21.156;2023-07-13T13:39:45;11.73;;;8.30;;
16979;SDS011;42288;52.182;21.156;2023-07-13T13:42:12;11.67;;;9.37;;
16979;SDS011;42288;52.182;21.156;2023-07-13T13:44:38;13.90;;;9.60;;
16979;SDS011;42288;52.182;21.156;2023-07-13T13:47:03;10.50;;;7.00;;
16979;SDS011;42288;52.182;21.156;2023-07-13T13:49:29;12.60;;;8.77;;
16979;SDS011;42288;52.182;21.156;2023-07-13T13:51:55;11.63;;;8.20;;
16979;SDS011;42288;52.182;21.156;2023-07-13T13:54:22;10.63;;;8.77;;
16979;SDS011;42288;52.182;21.156;2023-07-13T13:56:49;12.40;;;8.73;;
16979;SDS011;42288;52.182;21.156;2023-07-13T13:59:16;10.60;;;8.57;;
16979;SDS011;42288;52.182;21.156;2023-07-13T14:01:42;9.47;;;8.03;;
16979;SDS011;42288;52.182;21.156;2023-07-13T14:04:13;17.83;;;12.17;;
16979;SDS011;42288;52.182;21.156;2023-07-13T14:06:42;15.50;;;11.03;;
16979;SDS011;42288;52.182;21.156;2023-07-13T14:09:09;17.03;;;12.03;;
16979;SDS011;42288;52.182;21.156;2023-07-13T14:11:41;19.80;;;11.40;;
16979;SDS011;42288;52.182;21.156;2023-07-13T14:14:09;15.63;;;11.20;;
16979;SDS011;42288;52.182;21.156;2023-07-13T14:16:41;13.20;;;10.40;;
16979;SDS011;42288;52.182;21.156;2023-07-13T14:19:08;13.60;;;9.80;;
16979;SDS011;42288;52.182;21.156;2023-07-13T14:21:36;14.00;;;10.37;;
16979;SDS011;42288;52.182;21.156;2023-07-13T14:24:02;15.30;;;10.03;;
16979;SDS011;42288;52.182;21.156;2023-07-13T14:26:29;14.40;;;10.60;;
16979;SDS011;42288;52.182;21.156;2023-07-13T14:29:01;15.60;;;10.50;;
16979;SDS011;42288;52.182;21.156;2023-07-13T14:31:27;15.87;;;10.33;;
16979;SDS011;42288;52.182;21.156;2023-07-13T14:33:55;15.00;;;9.17;;
16979;SDS011;42288;52.182;21.156;2023-07-13T14:38:57;16.37;;;12.13;;
16979;SDS011;42288;52.182;21.156;2023-07-13T14:41:25;13.40;;;8.90;;
16979;SDS011;42288;52.182;21.156;2023-07-13T14:43:52;12.37;;;9.20;;
16979;SDS011;42288;52.182;21.156;2023-07-13T14:48:51;11.93;;;8.93;;
16979;SDS011;42288;52.182;21.156;2023-07-13T14:51:20;10.57;;;8.00;;
16979;SDS011;42288;52.182;21.156;2023-07-13T14:53:46;12.37;;;7.97;;
16979;SDS011;42288;52.182;21.156;2023-07-13T14:56:12;11.53;;;7.73;;
16979;SDS011;42288;52.182;21.156;2023-07-13T14:58:37;11.47;;;8.13;;
16979;SDS011;42288;52.182;21.156;2023-07-13T15:01:07;12.00;;;8.50;;
16979;SDS011;42288;52.182;21.156;2023-07-13T15:03:37;11.77;;;8.20;;
16979;SDS011;42288;52.182;21.156;2023-07-13T15:06:10;15.23;;;8.67;;
16979;SDS011;42288;52.182;21.156;2023-07-13T15:08:37;9.53;;;8.17;;
16979;SDS011;42288;52.182;21.156;2023-07-13T15:11:02;14.23;;;8.83;;
16979;SDS011;42288;52.182;21.156;2023-07-13T15:13:30;10.77;;;8.50;;